createdAt,value
2022-09-17T00:02:59.410Z,98905.38
2022-09-17T00:08:01.168Z,98904.00
2022-09-17T00:13:02.696Z,98901.13
2022-09-17T00:18:04.232Z,98898.88
2022-09-17T00:23:06.826Z,98908.41
2022-09-17T00:28:09.180Z,98912.34
2022-09-17T00:33:15.984Z,98908.69
2022-09-17T00:38:17.483Z,98909.22
2022-09-17T00:43:49.671Z,98911.31
2022-09-17T00:48:54.087Z,98909.06
2022-09-17T00:53:56.483Z,98913.84
2022-09-17T00:58:58.489Z,98913.84
2022-09-17T01:04:00.325Z,98910.56
2022-09-17T01:09:07.110Z,98902.69
2022-09-17T01:14:14.725Z,98902.91
2022-09-17T01:19:37.488Z,98901.66
2022-09-17T01:24:49.467Z,98889.44
2022-09-17T01:30:12.441Z,98884.78
2022-09-17T01:35:38.288Z,98890.13
2022-09-17T01:40:54.050Z,98901.97
2022-09-17T01:46:21.027Z,98895.53
2022-09-17T01:51:25.286Z,98906.75
2022-09-17T01:56:33.938Z,98913.84
2022-09-17T02:01:38.455Z,98911.69
2022-09-17T02:06:46.379Z,98915.72
2022-09-17T02:11:55.321Z,98918.03
2022-09-17T02:17:11.054Z,98924.78
2022-09-17T02:22:28.066Z,98919.50
2022-09-17T02:27:37.798Z,98921.00
2022-09-17T02:32:39.500Z,98916.50
2022-09-17T02:37:42.381Z,98915.19
2022-09-17T02:43:03.939Z,98905.38
2022-09-17T02:48:12.725Z,98905.91
2022-09-17T02:53:38.245Z,98898.06
2022-09-17T02:59:11.728Z,98901.66
2022-09-17T03:04:17.342Z,98899.59
2022-09-17T03:09:19.023Z,98900.59
2022-09-17T03:14:20.886Z,98899.50
2022-09-17T03:19:22.487Z,98906.69
2022-09-17T03:24:24.058Z,98904.59
2022-09-17T03:29:25.807Z,98924.22
2022-09-17T03:34:27.341Z,98923.06
2022-09-17T03:39:29.797Z,98928.66
2022-09-17T03:44:31.427Z,98927.09
2022-09-17T03:49:33.202Z,98925.41
2022-09-17T03:54:34.760Z,98927.00
2022-09-17T03:59:36.326Z,98928.97
2022-09-17T04:04:37.936Z,98936.03
2022-09-17T04:09:39.463Z,98932.59
2022-09-17T04:14:41.005Z,98933.69
2022-09-17T04:19:42.554Z,98943.03
2022-09-17T04:24:44.137Z,98940.41
2022-09-17T04:29:45.725Z,98926.59
2022-09-17T04:34:47.327Z,98936.50
2022-09-17T04:39:48.944Z,98931.00
2022-09-17T04:44:50.560Z,98937.09
2022-09-17T04:49:52.228Z,98936.63
2022-09-17T04:54:53.761Z,98925.78
2022-09-17T04:59:55.306Z,98934.22
2022-09-17T05:04:56.929Z,98935.69
2022-09-17T05:09:58.498Z,98939.34
2022-09-17T05:15:00.132Z,98942.25
2022-09-17T05:20:02.001Z,98946.66
2022-09-17T05:25:03.857Z,98961.69
2022-09-17T05:30:06.417Z,98954.41
2022-09-17T05:35:09.202Z,98965.78
2022-09-17T05:40:10.931Z,98968.66
2022-09-17T05:45:12.817Z,98964.00
2022-09-17T05:50:14.572Z,98959.28
2022-09-17T05:55:16.571Z,98971.28
2022-09-17T06:00:18.946Z,98962.78
2022-09-17T06:05:20.611Z,98959.97
2022-09-17T06:10:22.342Z,98960.13
2022-09-17T06:15:24.197Z,98963.88
2022-09-17T06:20:25.861Z,98976.13
2022-09-17T06:25:27.476Z,98970.66
2022-09-17T06:30:29.533Z,98976.13
2022-09-17T06:35:31.364Z,98977.69
2022-09-17T06:40:33.220Z,98970.50
2022-09-17T06:45:34.843Z,98970.59
2022-09-17T06:50:40.589Z,98976.00
2022-09-17T06:55:44.146Z,98968.25
2022-09-17T07:00:45.755Z,98968.47
2022-09-17T07:05:47.706Z,98970.13
2022-09-17T07:10:49.430Z,98964.41
2022-09-17T07:15:59.524Z,98975.22
2022-09-17T07:21:06.072Z,98975.91
2022-09-17T07:26:12.828Z,98980.25
2022-09-17T07:31:16.532Z,98986.28
2022-09-17T07:36:18.614Z,98994.03
2022-09-17T07:41:20.213Z,98997.88
2022-09-17T07:46:21.845Z,99002.53
2022-09-17T07:51:25.734Z,99013.28
2022-09-17T07:56:27.904Z,99014.41
2022-09-17T08:01:29.764Z,99031.25
2022-09-17T08:06:31.402Z,99037.78
2022-09-17T08:16:54.870Z,99062.44
2022-09-17T08:21:56.742Z,99050.88
2022-09-17T08:26:58.321Z,99053.06
2022-09-17T08:31:59.985Z,99050.97
2022-09-17T08:37:01.601Z,99069.06
2022-09-17T08:42:31.341Z,99083.69
2022-09-17T08:47:41.190Z,99091.03
2022-09-17T08:52:59.682Z,99087.78
2022-09-17T08:58:22.779Z,99081.94
2022-09-17T09:03:49.318Z,99080.63
2022-09-17T09:08:59.038Z,99085.91
2022-09-17T09:14:09.670Z,99075.69
2022-09-17T09:19:26.877Z,99072.88
2022-09-17T09:24:42.235Z,99078.16
2022-09-17T09:30:04.326Z,99079.19
2022-09-17T09:35:18.935Z,99081.53
2022-09-17T09:40:48.655Z,99093.53
2022-09-17T09:46:11.444Z,99091.59
2022-09-17T09:51:20.544Z,99087.13
2022-09-17T09:56:52.843Z,99084.22
2022-09-17T10:01:54.603Z,99089.50
2022-09-17T10:07:08.641Z,99083.94
2022-09-17T10:12:10.905Z,99091.78
2022-09-17T10:17:26.620Z,99113.72
2022-09-17T10:22:32.630Z,99109.13
2022-09-17T10:27:36.811Z,99109.69
2022-09-17T10:32:38.404Z,99110.56
2022-09-17T10:37:48.814Z,99102.22
2022-09-17T10:43:11.196Z,99099.50
2022-09-17T10:48:18.161Z,99094.31
2022-09-17T10:53:23.297Z,99103.69
2022-09-17T10:58:39.194Z,99102.47
2022-09-17T11:04:21.094Z,99109.63
2022-09-17T11:09:30.451Z,99093.88
2022-09-17T11:15:00.871Z,99090.25
2022-09-17T11:20:27.148Z,99085.44
2022-09-17T11:25:39.701Z,99078.53
2022-09-17T11:30:55.441Z,99065.13
2022-09-17T11:36:04.354Z,99064.50
2022-09-17T11:41:31.090Z,99095.66
2022-09-17T11:46:40.536Z,99112.78
2022-09-17T11:51:58.475Z,99118.25
2022-09-17T11:57:16.838Z,99116.19
2022-09-17T12:02:27.310Z,99106.22
2022-09-17T12:07:33.834Z,99115.53
2022-09-17T12:12:49.984Z,99115.53
2022-09-17T12:18:31.313Z,99098.53
2022-09-17T12:23:40.228Z,99099.34
2022-09-17T12:28:47.039Z,99086.16
2022-09-17T12:33:52.959Z,99085.09
2022-09-17T12:39:12.927Z,99070.94
2022-09-17T12:44:25.922Z,99070.44
2022-09-17T12:49:43.364Z,99055.53
2022-09-17T12:54:54.727Z,99050.63
2022-09-17T13:00:11.739Z,99037.03
2022-09-17T13:05:41.414Z,99036.09
2022-09-17T13:11:20.179Z,99036.56
2022-09-17T13:16:41.165Z,99054.50
2022-09-17T13:22:00.355Z,99078.66
2022-09-17T13:27:03.909Z,99075.88
2022-09-17T13:32:05.418Z,99073.66
2022-09-17T13:37:20.391Z,99053.94
2022-09-17T13:42:29.241Z,99045.06
2022-09-17T13:47:56.975Z,99045.38
2022-09-17T13:53:06.608Z,99037.88
2022-09-17T13:58:36.409Z,99039.50
2022-09-17T14:03:42.028Z,99030.81
2022-09-17T14:08:43.701Z,99029.59
2022-09-17T14:13:45.929Z,99026.19
2022-09-17T14:18:58.888Z,99015.72
2022-09-17T14:24:03.688Z,99007.88
2022-09-17T14:29:43.639Z,99007.78
2022-09-17T14:34:45.412Z,99003.25
2022-09-17T14:39:49.083Z,99013.53
2022-09-17T14:45:02.368Z,99018.28
2022-09-17T14:50:26.381Z,99019.97
2022-09-17T14:55:31.873Z,99014.31
2022-09-17T15:00:38.091Z,99004.13
2022-09-17T15:05:41.073Z,98999.97
2022-09-17T15:11:02.674Z,98993.19
2022-09-17T15:16:12.833Z,98990.06
2022-09-17T15:21:43.458Z,98980.56
2022-09-17T15:26:51.491Z,98982.34
2022-09-17T15:31:53.454Z,98978.84
2022-09-17T15:37:24.934Z,98982.25
2022-09-17T15:42:29.503Z,98998.59
2022-09-17T15:47:48.640Z,99006.00
2022-09-17T15:52:51.797Z,99005.88
2022-09-17T15:57:53.635Z,98999.56
2022-09-17T16:02:55.638Z,99008.34
2022-09-17T16:08:18.146Z,99004.88
2022-09-17T16:13:19.795Z,99005.16
2022-09-17T16:18:21.441Z,99002.50
2022-09-17T16:23:23.178Z,98998.53
2022-09-17T16:28:24.841Z,98996.16
2022-09-17T16:33:28.273Z,99002.94
2022-09-17T16:38:29.837Z,99007.72
2022-09-17T16:43:33.787Z,99003.78
2022-09-17T16:48:35.392Z,99019.00
2022-09-17T16:53:37.337Z,99024.97
2022-09-17T16:58:40.161Z,99042.44
2022-09-17T17:03:42.232Z,99037.44
2022-09-17T17:08:43.925Z,99046.44
2022-09-17T17:13:45.647Z,99036.94
2022-09-17T17:18:47.315Z,99038.97
2022-09-17T17:23:49.083Z,99036.75
2022-09-17T17:28:50.834Z,99041.88
2022-09-17T17:33:52.697Z,99051.03
2022-09-17T17:39:00.898Z,99062.91
2022-09-17T17:44:02.850Z,99066.97
2022-09-17T17:49:04.830Z,99069.34
2022-09-17T17:54:06.602Z,99074.16
2022-09-17T17:59:08.401Z,99080.69
2022-09-17T18:04:10.122Z,99084.53
2022-09-17T18:09:11.790Z,99083.25
2022-09-17T18:14:13.930Z,99087.66
2022-09-17T18:19:15.598Z,99089.81
2022-09-17T18:24:17.216Z,99092.91
2022-09-17T18:29:18.902Z,99092.31
2022-09-17T18:34:20.563Z,99088.03
2022-09-17T18:44:44.131Z,99096.22
2022-09-17T18:49:45.767Z,99098.78
2022-09-17T18:54:47.362Z,99106.09
2022-09-17T18:59:48.951Z,99107.13
2022-09-17T19:04:50.542Z,99113.13
2022-09-17T19:09:52.162Z,99117.47
2022-09-17T19:14:54.424Z,99107.34
2022-09-17T19:19:56.011Z,99112.44
2022-09-17T19:24:57.675Z,99106.91
2022-09-17T19:30:00.468Z,99101.69
2022-09-17T19:35:02.282Z,99103.63
2022-09-17T19:40:05.787Z,99105.34
2022-09-17T19:45:08.071Z,99112.78
2022-09-17T19:50:09.795Z,99103.03
2022-09-17T19:55:13.077Z,99096.66
2022-09-17T20:00:15.640Z,99094.63
2022-09-17T20:05:17.342Z,99098.53
2022-09-17T20:10:19.496Z,99107.19
2022-09-17T20:15:21.098Z,99113.38
2022-09-17T20:20:28.297Z,99115.06
2022-09-17T20:25:29.948Z,99110.09
2022-09-17T20:30:31.542Z,99108.00
2022-09-17T20:35:35.756Z,99102.53
2022-09-17T20:40:37.460Z,99101.78
2022-09-17T20:45:39.095Z,99094.19
2022-09-17T20:50:40.762Z,99091.28
2022-09-17T20:55:42.341Z,99073.94
2022-09-17T21:00:44.023Z,99070.16
2022-09-17T21:05:45.693Z,99072.56
2022-09-17T21:10:47.254Z,99067.50
2022-09-17T21:16:00.066Z,99074.72
2022-09-17T21:21:07.622Z,99068.09
2022-09-17T21:26:14.804Z,99070.31
2022-09-17T21:31:31.027Z,99078.38
2022-09-17T21:36:36.301Z,99073.31
2022-09-17T21:41:42.368Z,99062.84
2022-09-17T21:46:44.654Z,99067.56
2022-09-17T21:51:46.514Z,99073.66
2022-09-17T21:56:48.118Z,99068.69
2022-09-17T22:01:50.639Z,99076.47
2022-09-17T22:06:53.368Z,99062.25
2022-09-17T22:11:55.124Z,99057.94
2022-09-17T22:16:57.222Z,99054.44
2022-09-17T22:21:59.005Z,99048.41
2022-09-17T22:27:00.626Z,99050.91
2022-09-17T22:32:02.585Z,99038.66
2022-09-17T22:37:06.103Z,99028.09
2022-09-17T22:42:07.697Z,99043.91
2022-09-17T22:47:09.340Z,99033.81
2022-09-17T22:52:10.973Z,99042.56
2022-09-17T22:57:12.530Z,99046.50
2022-09-17T23:02:14.127Z,99049.91
2022-09-17T23:07:15.680Z,99054.38
2022-09-17T23:12:17.308Z,99046.91
2022-09-17T23:17:18.959Z,99050.09
2022-09-17T23:22:23.137Z,99044.38
2022-09-17T23:27:24.695Z,99042.59
2022-09-17T23:32:26.326Z,99036.41
2022-09-17T23:37:28.149Z,99036.56
2022-09-17T23:42:29.791Z,99025.91
2022-09-17T23:47:31.704Z,99023.88
2022-09-17T23:52:33.297Z,99018.34
2022-09-17T23:57:34.843Z,99011.72
